createdAt,value
2022-10-09T00:01:03.337Z,8.25
2022-10-09T00:03:31.144Z,7.90
2022-10-09T00:05:59.129Z,7.55
2022-10-09T00:08:27.999Z,8.35
2022-10-09T00:10:56.148Z,7.10
2022-10-09T00:13:24.270Z,7.50
2022-10-09T00:15:53.369Z,7.60
2022-10-09T00:18:21.114Z,7.70
2022-10-09T00:20:48.900Z,7.60
2022-10-09T00:23:18.226Z,7.75
2022-10-09T00:25:53.817Z,7.38
2022-10-09T00:28:22.055Z,6.68
2022-10-09T00:30:49.934Z,6.32
2022-10-09T00:33:19.530Z,6.80
2022-10-09T00:35:47.940Z,6.57
2022-10-09T00:38:16.139Z,6.90
2022-10-09T00:40:44.081Z,6.78
2022-10-09T00:43:17.010Z,7.05
2022-10-09T00:45:49.228Z,7.10
2022-10-09T00:48:19.767Z,7.88
2022-10-09T00:50:51.534Z,7.22
2022-10-09T00:53:22.004Z,7.32
2022-10-09T00:55:50.613Z,7.33
2022-10-09T00:58:18.426Z,7.37
2022-10-09T01:00:46.302Z,6.60
2022-10-09T01:03:14.052Z,6.30
2022-10-09T01:05:50.747Z,6.63
2022-10-09T01:08:22.571Z,6.68
2022-10-09T01:10:57.359Z,6.72
2022-10-09T01:13:29.958Z,6.22
2022-10-09T01:16:02.738Z,6.60
2022-10-09T01:18:39.189Z,5.90
2022-10-09T01:21:13.361Z,6.15
2022-10-09T01:24:08.179Z,6.20
2022-10-09T01:27:06.236Z,6.45
2022-10-09T01:29:36.522Z,6.53
2022-10-09T01:32:06.422Z,6.15
2022-10-09T01:34:34.550Z,5.90
2022-10-09T01:37:02.991Z,6.15
2022-10-09T01:39:32.551Z,5.93
2022-10-09T01:42:02.990Z,5.75
2022-10-09T01:44:32.461Z,5.40
2022-10-09T01:47:01.048Z,5.63
2022-10-09T01:49:42.230Z,5.10
2022-10-09T01:52:19.903Z,5.13
2022-10-09T01:55:00.611Z,4.97
2022-10-09T01:57:36.326Z,5.57
2022-10-09T02:00:10.695Z,4.95
2022-10-09T02:02:39.973Z,5.47
2022-10-09T02:05:09.916Z,4.90
2022-10-09T02:07:39.242Z,5.47
2022-10-09T02:10:09.287Z,5.65
2022-10-09T02:12:42.976Z,5.15
2022-10-09T02:15:11.989Z,5.93
2022-10-09T02:17:45.511Z,5.10
2022-10-09T02:20:19.847Z,5.20
2022-10-09T02:22:48.683Z,5.47
2022-10-09T02:25:18.143Z,5.40
2022-10-09T02:27:47.870Z,5.90
2022-10-09T02:30:16.779Z,5.63
2022-10-09T02:32:44.594Z,5.95
2022-10-09T02:35:12.524Z,5.93
2022-10-09T02:37:40.270Z,5.28
2022-10-09T02:40:10.824Z,5.47
2022-10-09T02:42:39.204Z,6.05
2022-10-09T02:45:10.387Z,6.55
2022-10-09T02:47:38.185Z,5.65
2022-10-09T02:50:06.967Z,5.87
2022-10-09T02:52:34.789Z,6.20
2022-10-09T02:55:02.556Z,5.95
2022-10-09T02:57:30.384Z,5.43
2022-10-09T02:59:58.151Z,5.35
2022-10-09T03:02:27.262Z,5.15
2022-10-09T03:04:55.039Z,5.95
2022-10-09T03:07:22.984Z,5.80
2022-10-09T03:09:50.726Z,6.38
2022-10-09T03:12:21.184Z,6.10
2022-10-09T03:14:48.974Z,7.00
2022-10-09T03:17:16.715Z,6.75
2022-10-09T03:19:45.852Z,6.35
2022-10-09T03:22:13.632Z,6.43
2022-10-09T03:24:41.387Z,5.70
2022-10-09T03:27:09.497Z,7.07
2022-10-09T03:29:37.310Z,6.63
2022-10-09T03:32:05.133Z,6.97
2022-10-09T03:34:32.912Z,6.78
2022-10-09T03:37:02.052Z,7.00
2022-10-09T03:39:29.875Z,6.78
2022-10-09T03:41:57.796Z,7.30
2022-10-09T03:44:25.661Z,7.47
2022-10-09T03:46:53.531Z,7.18
2022-10-09T03:49:21.297Z,7.22
2022-10-09T03:51:49.079Z,7.63
2022-10-09T03:54:18.164Z,7.75
2022-10-09T03:56:45.887Z,7.85
2022-10-09T03:59:13.811Z,7.93
2022-10-09T04:01:41.569Z,8.00
2022-10-09T04:04:09.322Z,8.40
2022-10-09T04:06:37.087Z,7.30
2022-10-09T04:09:04.947Z,7.35
2022-10-09T04:11:34.106Z,7.40
2022-10-09T04:14:02.093Z,7.00
2022-10-09T04:16:29.950Z,7.05
2022-10-09T04:18:57.820Z,7.77
2022-10-09T04:21:25.902Z,7.25
2022-10-09T04:23:53.643Z,6.97
2022-10-09T04:26:21.454Z,7.10
2022-10-09T04:28:50.664Z,7.00
2022-10-09T04:31:18.610Z,6.95
2022-10-09T04:33:46.393Z,7.45
2022-10-09T04:36:14.259Z,7.20
2022-10-09T04:38:41.990Z,7.20
2022-10-09T04:41:11.263Z,7.43
2022-10-09T04:43:39.078Z,6.90
2022-10-09T04:46:09.413Z,6.65
2022-10-09T04:48:40.429Z,7.13
2022-10-09T04:51:08.963Z,6.60
2022-10-09T04:53:37.928Z,6.63
2022-10-09T04:56:09.237Z,6.43
2022-10-09T04:58:37.323Z,6.75
2022-10-09T05:01:09.197Z,6.80
2022-10-09T05:03:37.404Z,6.22
2022-10-09T05:06:06.637Z,6.93
2022-10-09T05:08:34.801Z,7.00
2022-10-09T05:11:02.747Z,7.25
2022-10-09T05:13:31.335Z,6.97
2022-10-09T05:16:03.363Z,7.65
2022-10-09T05:18:32.550Z,6.88
2022-10-09T05:21:00.587Z,7.83
2022-10-09T05:23:29.206Z,7.15
2022-10-09T05:25:58.689Z,7.05
2022-10-09T05:28:28.507Z,7.10
2022-10-09T05:30:56.409Z,7.60
2022-10-09T05:33:24.235Z,7.28
2022-10-09T05:35:54.487Z,6.80
2022-10-09T05:38:23.671Z,7.20
2022-10-09T05:40:52.771Z,7.30
2022-10-09T05:43:21.098Z,7.20
2022-10-09T05:45:48.919Z,7.07
2022-10-09T05:48:17.314Z,7.32
2022-10-09T05:50:45.178Z,6.85
2022-10-09T05:53:14.495Z,7.40
2022-10-09T05:55:42.259Z,6.72
2022-10-09T05:58:10.047Z,6.78
2022-10-09T06:00:37.808Z,7.15
2022-10-09T06:03:05.562Z,7.10
2022-10-09T06:05:33.319Z,6.95
2022-10-09T06:08:01.106Z,6.85
2022-10-09T06:10:32.521Z,7.38
2022-10-09T06:13:00.558Z,7.18
2022-10-09T06:15:28.287Z,7.95
2022-10-09T06:17:56.537Z,7.40
2022-10-09T06:20:24.302Z,7.55
2022-10-09T06:22:52.876Z,7.50
2022-10-09T06:25:20.599Z,7.53
2022-10-09T06:27:50.152Z,7.40
2022-10-09T06:30:17.991Z,7.43
2022-10-09T06:32:45.743Z,7.30
2022-10-09T06:35:13.571Z,7.32
2022-10-09T06:37:41.344Z,7.53
2022-10-09T06:40:10.006Z,7.97
2022-10-09T06:42:37.810Z,7.65
2022-10-09T06:45:08.141Z,8.63
2022-10-09T06:47:36.340Z,7.28
2022-10-09T06:50:04.880Z,7.35
2022-10-09T06:52:32.623Z,7.43
2022-10-09T06:55:00.406Z,7.05
2022-10-09T06:57:28.199Z,7.68
2022-10-09T06:59:56.439Z,7.33
2022-10-09T07:02:25.624Z,7.20
2022-10-09T07:04:53.438Z,7.53
2022-10-09T07:07:21.171Z,6.97
2022-10-09T07:09:48.926Z,7.00
2022-10-09T07:12:16.677Z,7.03
2022-10-09T07:14:44.406Z,7.57
2022-10-09T07:17:12.177Z,6.78
2022-10-09T07:19:41.441Z,7.00
2022-10-09T07:22:11.348Z,7.43
2022-10-09T07:24:39.115Z,7.05
2022-10-09T07:27:07.043Z,6.78
2022-10-09T07:29:34.911Z,6.13
2022-10-09T07:32:06.934Z,6.55
2022-10-09T07:34:37.954Z,6.72
2022-10-09T07:37:07.051Z,7.10
2022-10-09T07:39:36.291Z,6.10
2022-10-09T07:42:04.984Z,6.28
2022-10-09T07:44:32.735Z,6.80
2022-10-09T07:47:00.495Z,6.60
2022-10-09T07:49:28.332Z,6.22
2022-10-09T07:51:56.072Z,6.60
2022-10-09T07:54:25.219Z,6.40
2022-10-09T07:56:52.982Z,6.72
2022-10-09T07:59:20.711Z,6.43
2022-10-09T08:01:48.461Z,8.00
2022-10-09T08:04:16.568Z,7.17
2022-10-09T08:06:44.305Z,6.45
2022-10-09T08:09:12.071Z,6.43
2022-10-09T08:11:41.214Z,6.90
2022-10-09T08:14:10.167Z,7.07
2022-10-09T08:16:37.962Z,6.30
2022-10-09T08:19:05.767Z,6.90
2022-10-09T08:21:33.760Z,6.60
2022-10-09T08:24:02.043Z,6.80
2022-10-09T08:26:31.723Z,6.40
2022-10-09T08:29:02.350Z,6.28
2022-10-09T08:31:31.623Z,6.70
2022-10-09T08:34:01.275Z,6.60
2022-10-09T08:36:29.940Z,6.43
2022-10-09T08:38:58.149Z,6.68
2022-10-09T08:41:39.447Z,7.00
2022-10-09T08:44:14.760Z,6.53
2022-10-09T08:46:52.470Z,6.38
2022-10-09T08:49:26.026Z,6.45
2022-10-09T08:51:55.318Z,6.55
2022-10-09T08:54:30.291Z,6.20
2022-10-09T08:57:03.059Z,6.35
2022-10-09T08:59:32.559Z,6.90
2022-10-09T09:02:07.994Z,6.35
2022-10-09T09:04:54.537Z,6.50
2022-10-09T09:07:28.407Z,7.10
2022-10-09T09:10:03.762Z,6.43
2022-10-09T09:12:38.377Z,7.10
2022-10-09T09:15:27.239Z,6.93
2022-10-09T09:18:03.572Z,7.53
2022-10-09T09:20:43.608Z,7.32
2022-10-09T09:23:16.291Z,7.33
2022-10-09T09:25:46.104Z,7.60
2022-10-09T09:28:19.320Z,7.97
2022-10-09T09:30:55.494Z,7.40
2022-10-09T09:33:36.654Z,7.55
2022-10-09T09:36:09.867Z,7.85
2022-10-09T09:38:53.723Z,7.97
2022-10-09T09:41:26.508Z,7.32
2022-10-09T09:43:54.271Z,7.70
2022-10-09T09:46:29.446Z,7.53
2022-10-09T09:48:57.452Z,7.03
2022-10-09T09:51:30.193Z,7.18
2022-10-09T09:54:01.014Z,6.82
2022-10-09T09:57:07.008Z,6.80
2022-10-09T09:59:37.284Z,7.03
2022-10-09T10:02:15.762Z,6.68
2022-10-09T10:04:52.913Z,6.60
2022-10-09T10:07:33.722Z,6.85
2022-10-09T10:10:17.899Z,6.22
2022-10-09T10:12:57.171Z,6.55
2022-10-09T10:15:28.259Z,6.30
2022-10-09T10:18:05.087Z,6.38
2022-10-09T10:20:43.226Z,6.00
2022-10-09T10:23:27.884Z,6.13
2022-10-09T10:26:00.029Z,6.30
2022-10-09T10:28:33.585Z,5.78
2022-10-09T10:31:07.138Z,6.00
2022-10-09T10:33:39.882Z,5.30
2022-10-09T10:36:12.354Z,5.72
2022-10-09T10:38:46.740Z,6.38
2022-10-09T10:41:23.589Z,5.63
2022-10-09T10:43:57.037Z,5.47
2022-10-09T10:46:29.822Z,4.90
2022-10-09T10:49:01.662Z,5.18
2022-10-09T10:51:45.039Z,4.75
2022-10-09T10:54:24.538Z,4.90
2022-10-09T10:56:56.594Z,4.90
2022-10-09T10:59:39.262Z,5.13
2022-10-09T11:02:50.217Z,4.60
2022-10-09T11:05:27.860Z,4.22
2022-10-09T11:08:08.828Z,4.63
2022-10-09T11:10:44.605Z,6.60
2022-10-09T11:13:18.521Z,4.60
2022-10-09T11:15:59.284Z,4.65
2022-10-09T11:18:41.360Z,4.30
2022-10-09T11:21:20.153Z,4.60
2022-10-09T11:24:05.279Z,4.53
2022-10-09T11:26:42.404Z,4.38
2022-10-09T11:29:15.109Z,3.97
2022-10-09T11:31:48.609Z,4.68
2022-10-09T11:34:21.279Z,4.70
2022-10-09T11:36:50.454Z,4.30
2022-10-09T11:39:22.251Z,5.60
2022-10-09T11:41:52.773Z,4.35
2022-10-09T11:44:39.429Z,4.32
2022-10-09T11:47:16.690Z,6.70
2022-10-09T11:49:57.836Z,4.57
2022-10-09T11:52:34.903Z,4.50
2022-10-09T11:55:17.051Z,4.05
2022-10-09T11:57:44.895Z,4.20
2022-10-09T12:00:13.611Z,4.28
2022-10-09T12:02:42.825Z,4.20
2022-10-09T12:05:19.563Z,4.30
2022-10-09T12:07:48.727Z,4.70
2022-10-09T12:10:28.652Z,4.63
2022-10-09T12:12:59.426Z,4.30
2022-10-09T12:15:29.774Z,4.78
2022-10-09T12:17:57.547Z,4.28
2022-10-09T12:20:26.991Z,4.15
2022-10-09T12:23:25.140Z,4.95
2022-10-09T12:25:49.819Z,4.70
2022-10-09T12:28:26.928Z,4.20
2022-10-09T12:30:56.365Z,4.47
2022-10-09T12:33:27.179Z,4.18
2022-10-09T12:36:06.370Z,4.18
2022-10-09T12:38:35.487Z,7.75
2022-10-09T12:41:06.457Z,4.40
2022-10-09T12:43:36.279Z,4.55
2022-10-09T12:46:04.243Z,4.47
2022-10-09T12:48:43.410Z,4.22
2022-10-09T12:51:20.169Z,3.97
2022-10-09T12:53:52.316Z,4.15
2022-10-09T12:56:25.416Z,7.40
2022-10-09T12:58:54.046Z,5.60
2022-10-09T13:01:22.659Z,4.47
2022-10-09T13:03:56.255Z,3.70
2022-10-09T13:06:27.130Z,3.88
2022-10-09T13:08:59.051Z,4.20
2022-10-09T13:11:37.916Z,4.22
2022-10-09T13:14:06.215Z,4.05
2022-10-09T13:16:41.406Z,3.90
2022-10-09T13:19:23.197Z,3.90
2022-10-09T13:22:08.297Z,3.60
2022-10-09T13:24:38.099Z,3.95
2022-10-09T13:27:06.362Z,3.95
2022-10-09T13:29:34.398Z,3.63
2022-10-09T13:32:03.176Z,3.55
2022-10-09T13:34:31.122Z,3.53
2022-10-09T13:36:58.870Z,3.70
2022-10-09T13:39:26.711Z,3.75
2022-10-09T13:41:57.355Z,4.90
2022-10-09T13:44:25.658Z,4.05
2022-10-09T13:46:53.415Z,3.93
2022-10-09T13:49:21.230Z,3.80
2022-10-09T13:51:48.987Z,3.80
2022-10-09T13:54:17.007Z,3.78
2022-10-09T13:56:44.857Z,3.70
2022-10-09T13:59:14.041Z,3.90
2022-10-09T14:01:41.894Z,3.85
2022-10-09T14:04:09.762Z,3.90
2022-10-09T14:06:38.242Z,3.97
2022-10-09T14:09:06.600Z,3.73
2022-10-09T14:11:34.769Z,3.72
2022-10-09T14:14:02.902Z,4.07
2022-10-09T14:16:32.240Z,3.63
2022-10-09T14:19:01.738Z,3.90
2022-10-09T14:21:30.654Z,4.00
2022-10-09T14:24:00.623Z,3.80
2022-10-09T14:26:29.552Z,3.90
2022-10-09T14:29:00.678Z,3.95
2022-10-09T14:31:29.113Z,4.20
2022-10-09T14:34:00.212Z,4.45
2022-10-09T14:36:29.061Z,4.53
2022-10-09T14:38:57.056Z,4.38
2022-10-09T14:41:25.570Z,4.05
2022-10-09T14:43:57.071Z,4.22
2022-10-09T14:46:25.948Z,4.50
2022-10-09T14:48:55.938Z,4.10
2022-10-09T14:51:27.518Z,4.13
2022-10-09T14:53:58.416Z,4.68
2022-10-09T14:56:27.680Z,4.40
2022-10-09T14:58:57.719Z,4.75
2022-10-09T15:01:25.707Z,4.15
2022-10-09T15:03:53.676Z,4.35
2022-10-09T15:06:24.008Z,7.65
2022-10-09T15:09:00.335Z,5.00
2022-10-09T15:11:31.407Z,4.15
2022-10-09T15:13:59.174Z,5.47
2022-10-09T15:16:27.395Z,5.22
2022-10-09T15:18:56.289Z,4.30
2022-10-09T15:21:26.547Z,4.65
2022-10-09T15:23:57.461Z,4.35
2022-10-09T15:26:27.008Z,4.50
2022-10-09T15:28:54.838Z,4.35
2022-10-09T15:31:25.479Z,4.70
2022-10-09T15:33:54.566Z,4.67
2022-10-09T15:36:23.255Z,4.60
2022-10-09T15:38:51.607Z,4.55
2022-10-09T15:41:26.415Z,4.10
2022-10-09T15:43:56.246Z,4.13
2022-10-09T15:46:24.397Z,4.30
2022-10-09T15:48:52.176Z,4.25
2022-10-09T15:51:20.550Z,4.33
2022-10-09T15:53:50.453Z,4.90
2022-10-09T15:56:21.118Z,4.10
2022-10-09T15:58:51.216Z,4.07
2022-10-09T16:01:19.864Z,4.38
2022-10-09T16:03:47.953Z,4.88
2022-10-09T16:06:18.271Z,4.90
2022-10-09T16:08:46.387Z,4.57
2022-10-09T16:11:17.871Z,5.20
2022-10-09T16:13:48.507Z,4.80
2022-10-09T16:16:19.983Z,4.80
2022-10-09T16:18:49.111Z,4.37
2022-10-09T16:21:19.843Z,4.50
2022-10-09T16:23:47.647Z,5.00
2022-10-09T16:26:17.631Z,4.45
2022-10-09T16:28:45.605Z,5.05
2022-10-09T16:31:20.627Z,4.40
2022-10-09T16:33:49.343Z,4.45
2022-10-09T16:36:17.665Z,4.68
2022-10-09T16:38:45.868Z,4.28
2022-10-09T16:41:17.711Z,4.20
2022-10-09T16:43:47.140Z,4.32
2022-10-09T16:46:20.595Z,4.45
2022-10-09T16:48:49.754Z,4.00
2022-10-09T16:51:20.663Z,4.05
2022-10-09T16:53:50.616Z,4.22
2022-10-09T16:56:20.810Z,4.88
2022-10-09T16:58:48.927Z,4.37
2022-10-09T17:01:17.295Z,4.60
2022-10-09T17:03:46.742Z,4.57
2022-10-09T17:06:19.445Z,4.22
2022-10-09T17:08:48.019Z,4.35
2022-10-09T17:11:17.795Z,4.15
2022-10-09T17:13:46.038Z,4.43
2022-10-09T17:16:18.493Z,4.07
2022-10-09T17:18:49.697Z,4.05
2022-10-09T17:21:19.381Z,3.80
2022-10-09T17:23:47.719Z,3.85
2022-10-09T17:26:17.182Z,4.43
2022-10-09T17:28:45.821Z,3.63
2022-10-09T17:31:16.155Z,3.53
2022-10-09T17:33:46.031Z,4.10
2022-10-09T17:36:17.400Z,4.78
2022-10-09T17:38:45.387Z,4.93
2022-10-09T17:41:15.043Z,4.70
2022-10-09T17:43:43.336Z,5.20
2022-10-09T17:46:11.372Z,5.55
2022-10-09T17:48:44.402Z,6.00
2022-10-09T17:51:17.385Z,5.40
2022-10-09T17:53:48.148Z,5.22
2022-10-09T17:56:17.985Z,5.30
2022-10-09T17:58:47.416Z,5.22
2022-10-09T18:01:21.624Z,4.53
2022-10-09T18:03:49.907Z,4.82
2022-10-09T18:06:23.365Z,4.80
2022-10-09T18:08:53.369Z,5.22
2022-10-09T18:11:22.481Z,4.75
2022-10-09T18:13:50.794Z,4.60
2022-10-09T18:16:22.368Z,4.67
2022-10-09T18:18:50.424Z,4.53
2022-10-09T18:21:19.713Z,5.40
2022-10-09T18:23:48.347Z,4.95
2022-10-09T18:26:19.244Z,5.35
2022-10-09T18:28:48.761Z,4.88
2022-10-09T18:31:18.372Z,4.85
2022-10-09T18:33:46.271Z,5.50
2022-10-09T18:36:19.984Z,5.50
2022-10-09T18:38:56.248Z,5.22
2022-10-09T18:41:26.572Z,4.97
2022-10-09T18:43:56.945Z,5.20
2022-10-09T18:46:29.958Z,5.22
2022-10-09T18:48:59.389Z,5.63
2022-10-09T18:51:29.663Z,5.65
2022-10-09T18:54:04.475Z,6.25
2022-10-09T18:56:36.699Z,6.13
2022-10-09T18:59:11.393Z,6.68
2022-10-09T19:01:41.344Z,6.40
2022-10-09T19:04:11.308Z,6.65
2022-10-09T19:06:45.074Z,6.50
2022-10-09T19:09:15.839Z,6.80
2022-10-09T19:11:44.815Z,6.90
2022-10-09T19:14:12.738Z,8.15
2022-10-09T19:16:40.548Z,7.63
2022-10-09T19:19:08.690Z,8.45
2022-10-09T19:21:39.244Z,9.18
2022-10-09T19:24:07.262Z,9.52
2022-10-09T19:26:36.373Z,8.93
2022-10-09T19:29:04.770Z,8.55
2022-10-09T19:31:33.502Z,8.13
2022-10-09T19:34:01.967Z,7.45
2022-10-09T19:36:33.023Z,7.88
2022-10-09T19:39:00.862Z,7.00
2022-10-09T19:41:28.679Z,6.70
2022-10-09T19:43:57.793Z,7.18
2022-10-09T19:46:25.579Z,6.43
2022-10-09T19:48:53.752Z,7.38
2022-10-09T19:51:23.056Z,7.53
2022-10-09T19:53:52.047Z,8.30
2022-10-09T19:56:23.030Z,8.15
2022-10-09T19:58:51.506Z,7.22
2022-10-09T20:01:23.271Z,7.90
2022-10-09T20:03:55.568Z,8.07
2022-10-09T20:06:23.314Z,7.68
2022-10-09T20:08:51.240Z,7.50
2022-10-09T20:11:20.551Z,7.22
2022-10-09T20:13:55.529Z,7.38
2022-10-09T20:16:27.765Z,7.68
2022-10-09T20:18:55.631Z,7.60
2022-10-09T20:21:23.459Z,7.82
2022-10-09T20:23:51.290Z,8.02
2022-10-09T20:26:20.862Z,7.75
2022-10-09T20:28:49.170Z,7.65
2022-10-09T20:31:19.331Z,7.65
2022-10-09T20:33:49.762Z,7.55
2022-10-09T20:36:19.971Z,7.50
2022-10-09T20:38:48.001Z,7.00
2022-10-09T20:41:16.932Z,7.10
2022-10-09T20:43:44.888Z,6.90
2022-10-09T20:46:15.151Z,6.70
2022-10-09T20:48:43.524Z,6.47
2022-10-09T20:51:12.690Z,6.75
2022-10-09T20:53:41.089Z,7.07
2022-10-09T20:56:12.527Z,7.38
2022-10-09T20:58:40.523Z,7.18
2022-10-09T21:01:10.034Z,7.07
2022-10-09T21:03:38.976Z,6.88
2022-10-09T21:06:08.559Z,7.22
2022-10-09T21:08:37.714Z,7.40
2022-10-09T21:11:06.739Z,7.80
2022-10-09T21:13:35.044Z,7.45
2022-10-09T21:16:06.503Z,7.60
2022-10-09T21:18:34.584Z,7.30
2022-10-09T21:21:05.724Z,6.67
2022-10-09T21:23:33.768Z,7.65
2022-10-09T21:26:03.385Z,6.53
2022-10-09T21:28:31.548Z,6.82
2022-10-09T21:30:59.361Z,7.00
2022-10-09T21:33:27.132Z,7.20
2022-10-09T21:35:55.387Z,6.53
2022-10-09T21:38:24.315Z,7.28
2022-10-09T21:40:52.403Z,6.72
2022-10-09T21:43:21.469Z,6.68
2022-10-09T21:45:51.218Z,6.35
2022-10-09T21:48:19.502Z,6.10
2022-10-09T21:50:47.259Z,6.10
2022-10-09T21:53:15.042Z,6.05
2022-10-09T21:55:43.062Z,6.10
2022-10-09T21:58:11.707Z,5.80
2022-10-09T22:00:40.803Z,5.80
2022-10-09T22:03:08.614Z,5.15
2022-10-09T22:05:36.343Z,5.75
2022-10-09T22:08:04.084Z,5.90
2022-10-09T22:10:31.840Z,5.20
2022-10-09T22:12:59.692Z,5.80
2022-10-09T22:15:27.453Z,5.97
2022-10-09T22:17:56.558Z,5.70
2022-10-09T22:20:25.143Z,6.38
2022-10-09T22:22:53.178Z,6.13
2022-10-09T22:25:21.434Z,6.47
2022-10-09T22:27:49.162Z,6.18
2022-10-09T22:30:17.091Z,5.97
2022-10-09T22:32:44.848Z,5.80
2022-10-09T22:35:13.941Z,6.30
2022-10-09T22:37:41.685Z,6.28
2022-10-09T22:40:10.000Z,5.75
2022-10-09T22:42:37.795Z,6.30
2022-10-09T22:45:06.424Z,6.10
2022-10-09T22:47:34.223Z,6.05
2022-10-09T22:50:01.997Z,6.45
2022-10-09T22:52:31.056Z,6.13
2022-10-09T22:55:00.487Z,6.20
2022-10-09T22:57:28.242Z,6.60
2022-10-09T22:59:55.990Z,7.03
2022-10-09T23:02:23.738Z,6.35
2022-10-09T23:04:51.487Z,6.35
2022-10-09T23:07:19.228Z,5.65
2022-10-09T23:09:48.447Z,5.90
2022-10-09T23:12:16.302Z,6.13
2022-10-09T23:14:44.058Z,6.65
2022-10-09T23:17:11.803Z,7.78
2022-10-09T23:19:39.731Z,6.15
2022-10-09T23:22:07.486Z,5.93
2022-10-09T23:24:35.338Z,6.37
2022-10-09T23:27:04.456Z,6.00
2022-10-09T23:29:32.207Z,6.15
2022-10-09T23:32:00.011Z,6.30
2022-10-09T23:34:27.779Z,6.35
2022-10-09T23:36:55.513Z,6.18
2022-10-09T23:39:23.402Z,6.38
2022-10-09T23:41:51.163Z,6.90
2022-10-09T23:44:22.335Z,8.13
2022-10-09T23:46:50.248Z,9.52
2022-10-09T23:49:18.072Z,8.32
2022-10-09T23:51:45.801Z,8.50
2022-10-09T23:54:13.709Z,8.70
2022-10-09T23:56:42.633Z,9.07
2022-10-09T23:59:12.617Z,9.85
